Time;durP1;ratioP1;P1;durP2;ratioP2;P2;SDS_P1;SDS_P2;PMS_P1;PMS_P2;Temp;Humidity;BMP_temperature;BMP_pressure;BME280_temperature;BME280_humidity;BME280_pressure;Samples;Min_cycle;Max_cycle;Signal;HPM_P1;HPM_P2
2022/05/09 00:01:36;;;;;;;1.55;1.55;;;14.70;99.90;;;;;;5164000;28;20343;-77
2022/05/09 00:04:10;;;;;;;1.85;1.75;;;14.80;99.90;;;;;;5182887;28;20042;-78
2022/05/09 00:06:45;;;;;;;0.90;0.90;;;14.90;99.90;;;;;;5156122;28;20232;-77
2022/05/09 00:09:17;;;;;;;1.42;1.33;;;15.00;99.90;;;;;;5184402;28;20026;-79
2022/05/09 00:11:52;;;;;;;0.88;0.88;;;15.20;99.90;;;;;;5184848;28;20254;-79
2022/05/09 00:14:29;;;;;;;0.60;0.60;;;15.20;99.90;;;;;;5185273;28;20039;-77
2022/05/09 00:17:03;;;;;;;2.25;2.15;;;15.30;99.90;;;;;;5185934;28;20030;-77
2022/05/09 00:19:38;;;;;;;1.10;1.10;;;15.30;99.90;;;;;;5168523;28;20045;-80
2022/05/09 00:22:09;;;;;;;;;;;15.30;99.90;;;;;;5172239;28;20037;-76
2022/05/09 00:24:40;;;;;;;1.25;1.15;;;15.30;99.90;;;;;;5189728;28;19960;-77
2022/05/09 00:27:14;;;;;;;1.02;1.02;;;15.30;99.90;;;;;;5179688;28;20026;-78
2022/05/09 00:29:47;;;;;;;1.17;1.17;;;15.20;99.90;;;;;;5159475;28;20018;-76
2022/05/09 00:32:21;;;;;;;1.15;1.15;;;15.20;99.90;;;;;;5168507;28;20257;-79
2022/05/09 00:34:55;;;;;;;1.23;1.20;;;15.00;99.90;;;;;;5163540;28;20022;-77
2022/05/09 00:37:29;;;;;;;0.70;0.70;;;15.00;99.90;;;;;;5181733;28;20231;-79
2022/05/09 00:40:01;;;;;;;;;;;14.90;99.90;;;;;;5182266;28;20051;-80
2022/05/09 00:42:32;;;;;;;0.60;0.60;;;14.80;99.90;;;;;;5164021;28;20137;-76
2022/05/09 00:45:06;;;;;;;2.35;1.88;;;14.70;99.90;;;;;;5163579;28;20052;-79
2022/05/09 00:47:37;;;;;;;;;;;14.70;99.90;;;;;;5163413;28;20041;-79
2022/05/09 00:50:19;;;;;;;0.98;0.98;;;14.70;99.90;;;;;;5182712;28;19901;-77
2022/05/09 00:53:01;;;;;;;0.85;0.85;;;14.70;99.90;;;;;;5182576;28;20025;-77
2022/05/09 00:55:42;;;;;;;0.98;0.93;;;14.70;99.90;;;;;;5180240;28;20017;-78
2022/05/09 00:59:00;;;;;;;1.98;1.88;;;14.60;99.90;;;;;;5172087;28;20033;-77
2022/05/09 01:01:32;;;;;;;0.80;0.80;;;14.50;99.90;;;;;;5179706;28;20279;-79
2022/05/09 01:04:11;;;;;;;1.15;1.15;;;14.40;99.90;;;;;;5182760;28;20026;-77
2022/05/09 01:06:45;;;;;;;1.25;1.25;;;14.50;99.90;;;;;;5154521;28;20267;-78
2022/05/09 01:09:16;;;;;;;0.85;0.85;;;14.40;99.90;;;;;;5181826;28;20022;-79
2022/05/09 01:11:49;;;;;;;0.88;0.88;;;14.50;99.90;;;;;;5162828;28;20037;-77
2022/05/09 01:14:25;;;;;;;1.48;1.48;;;14.60;99.90;;;;;;5182179;28;20530;-78
2022/05/09 01:17:01;;;;;;;1.05;1.00;;;14.80;99.90;;;;;;5164432;28;20239;-77
2022/05/09 01:19:41;;;;;;;0.80;0.80;;;14.90;99.90;;;;;;5181394;28;20293;-77
2022/05/09 01:22:36;;;;;;;0.90;0.90;;;15.00;99.90;;;;;;5182073;28;20026;-77
2022/05/09 01:25:14;;;;;;;1.40;1.38;;;15.00;99.90;;;;;;5178330;28;20024;-80
2022/05/09 01:27:46;;;;;;;0.73;0.73;;;15.00;99.90;;;;;;5181020;28;20349;-77
2022/05/09 01:30:46;;;;;;;1.70;1.60;;;15.00;99.90;;;;;;5162144;28;20132;-77
2022/05/09 01:33:28;;;;;;;1.00;1.00;;;15.00;99.90;;;;;;5142943;28;20056;-76
2022/05/09 01:36:15;;;;;;;4.43;1.42;;;15.00;99.90;;;;;;5164079;28;20037;-77
2022/05/09 01:38:59;;;;;;;0.90;0.90;;;15.00;99.90;;;;;;5191002;28;20308;-75
2022/05/09 01:41:37;;;;;;;1.13;1.13;;;15.10;99.90;;;;;;5181771;28;20033;-76
2022/05/09 01:44:12;;;;;;;1.25;1.25;;;15.10;99.90;;;;;;5182182;28;20205;-78
2022/05/09 01:49:36;;;;;;;0.60;0.60;;;15.20;99.90;;;;;;5180917;28;20317;-76
2022/05/09 01:52:14;;;;;;;0.82;0.82;;;15.10;99.90;;;;;;5178221;28;20026;-77
2022/05/09 01:54:45;;;;;;;1.13;1.13;;;15.10;99.90;;;;;;5190573;28;20215;-78
2022/05/09 01:57:19;;;;;;;0.65;0.65;;;15.00;99.90;;;;;;5187506;28;20025;-78
2022/05/09 01:59:51;;;;;;;1.17;1.17;;;15.10;99.90;;;;;;5183121;28;20041;-76
2022/05/09 02:02:23;;;;;;;1.77;0.90;;;15.10;99.90;;;;;;5184599;28;20366;-76
2022/05/09 02:04:54;;;;;;;2.13;2.03;;;15.10;99.90;;;;;;5173077;28;20388;-78
2022/05/09 02:07:27;;;;;;;0.73;0.73;;;15.10;99.90;;;;;;5193444;28;20040;-77
2022/05/09 02:10:03;;;;;;;1.30;1.30;;;15.10;99.90;;;;;;5179589;28;20291;-77
2022/05/09 02:12:35;;;;;;;1.10;1.10;;;15.10;99.90;;;;;;5180384;28;20030;-77
2022/05/09 02:15:08;;;;;;;1.52;1.42;;;15.00;99.90;;;;;;5162969;28;20038;-76
2022/05/09 02:17:40;;;;;;;3.88;2.17;;;15.10;99.90;;;;;;5162913;28;20146;-75
2022/05/09 02:20:12;;;;;;;1.15;1.15;;;15.00;99.90;;;;;;5147760;28;20251;-76
2022/05/09 02:22:49;;;;;;;1.38;1.38;;;15.00;99.90;;;;;;5181957;28;20034;-76
2022/05/09 02:25:26;;;;;;;1.20;1.20;;;14.90;99.90;;;;;;5131566;28;20042;-76
2022/05/09 02:28:02;;;;;;;1.90;1.80;;;14.90;99.90;;;;;;5183526;28;20021;-77
2022/05/09 02:30:38;;;;;;;1.13;1.13;;;14.90;99.90;;;;;;5185067;28;20028;-77
2022/05/09 02:33:17;;;;;;;1.48;1.40;;;15.00;99.90;;;;;;5183976;28;20030;-75
2022/05/09 02:35:49;;;;;;;1.05;0.98;;;14.90;99.90;;;;;;5175623;28;20033;-76
2022/05/09 02:38:30;;;;;;;1.65;1.55;;;15.00;99.90;;;;;;5162912;28;20358;-76
2022/05/09 02:41:04;;;;;;;1.08;1.08;;;14.90;99.90;;;;;;5146608;28;20038;-77
2022/05/09 02:43:39;;;;;;;1.20;1.20;;;14.90;99.90;;;;;;5160320;28;20266;-78
2022/05/09 02:46:18;;;;;;;1.52;1.50;;;14.90;99.90;;;;;;5142949;28;20030;-77
2022/05/09 02:48:49;;;;;;;0.73;0.73;;;14.80;99.90;;;;;;5163744;28;20255;-79
2022/05/09 02:51:21;;;;;;;1.15;1.15;;;14.80;99.90;;;;;;5160971;28;20033;-78
2022/05/09 02:53:54;;;;;;;1.35;1.35;;;14.70;99.90;;;;;;5178350;28;20021;-78
2022/05/09 02:56:28;;;;;;;1.03;1.03;;;14.70;99.90;;;;;;5179268;28;20152;-76
2022/05/09 02:59:02;;;;;;;1.20;1.15;;;14.60;99.90;;;;;;5179798;28;20263;-78
2022/05/09 03:01:36;;;;;;;1.10;1.10;;;14.50;99.90;;;;;;5180208;28;20034;-77
2022/05/09 03:07:02;;;;;;;0.85;0.85;;;14.40;99.90;;;;;;5150926;28;20061;-78
2022/05/09 03:09:33;;;;;;;1.30;1.25;;;14.30;99.90;;;;;;5178926;28;20117;-77
2022/05/09 03:12:11;;;;;;;1.67;1.67;;;14.30;99.90;;;;;;5163114;28;20030;-78
2022/05/09 03:14:43;;;;;;;1.55;1.50;;;14.30;99.90;;;;;;5162270;28;20034;-77
2022/05/09 03:17:20;;;;;;;2.58;2.38;;;14.30;99.90;;;;;;5165863;28;20330;-79
2022/05/09 03:19:54;;;;;;;1.98;1.88;;;14.20;99.90;;;;;;5181741;28;20041;-78
2022/05/09 03:22:25;;;;;;;;;;;14.10;99.90;;;;;;5153048;28;20345;-78
2022/05/09 03:25:00;;;;;;;0.73;0.73;;;14.10;99.90;;;;;;5184546;28;19909;-78
2022/05/09 03:27:31;;;;;;;1.73;1.63;;;14.10;99.90;;;;;;5184122;28;20021;-78
2022/05/09 03:30:02;;;;;;;2.08;1.98;;;14.10;99.90;;;;;;5184039;28;20344;-77
2022/05/09 03:32:36;;;;;;;2.03;1.92;;;14.10;99.90;;;;;;5183758;28;20030;-78
2022/05/09 03:35:11;;;;;;;1.10;1.10;;;14.10;99.90;;;;;;5183226;28;20026;-78
2022/05/09 03:37:42;;;;;;;1.27;1.27;;;14.10;99.90;;;;;;5163413;28;20275;-78
2022/05/09 03:40:15;;;;;;;2.20;2.10;;;14.10;99.90;;;;;;5181023;28;20223;-78
2022/05/09 03:42:48;;;;;;;2.65;2.30;;;14.10;99.90;;;;;;5166004;28;20236;-77
2022/05/09 03:45:20;;;;;;;1.25;1.25;;;14.20;99.90;;;;;;5183918;28;20032;-78
2022/05/09 03:47:54;;;;;;;1.95;1.85;;;14.30;99.90;;;;;;5179672;28;20040;-78
2022/05/09 03:50:28;;;;;;;0.98;0.98;;;14.30;99.90;;;;;;5149400;28;20047;-77
2022/05/09 03:52:59;;;;;;;2.42;2.33;;;14.30;99.90;;;;;;5171558;28;20352;-79
2022/05/09 03:55:33;;;;;;;0.75;0.75;;;14.30;99.90;;;;;;5186817;28;20246;-77
2022/05/09 03:58:14;;;;;;;0.88;0.88;;;14.30;99.90;;;;;;5205082;28;20353;-77
2022/05/09 04:00:46;;;;;;;1.10;1.10;;;14.40;99.90;;;;;;5205063;28;20037;-79
2022/05/09 04:03:17;;;;;;;0.82;0.82;;;14.40;99.90;;;;;;5182185;28;20036;-78
2022/05/09 04:05:48;;;;;;;0.90;0.90;;;14.40;99.90;;;;;;5171149;28;20343;-77
2022/05/09 04:08:25;;;;;;;1.38;1.38;;;14.50;99.90;;;;;;5166333;28;20033;-77
2022/05/09 04:10:59;;;;;;;1.50;1.25;;;14.50;99.90;;;;;;5182233;28;20049;-76
2022/05/09 04:13:31;;;;;;;1.92;1.83;;;14.50;99.90;;;;;;5183897;28;20036;-78
2022/05/09 04:18:56;;;;;;;1.15;1.15;;;14.50;99.90;;;;;;5178783;28;20028;-77
2022/05/09 04:21:30;;;;;;;1.05;1.05;;;14.50;99.90;;;;;;5184531;28;20030;-78
2022/05/09 04:24:02;;;;;;;1.08;1.08;;;14.50;99.90;;;;;;5167036;28;20036;-78
2022/05/09 04:26:38;;;;;;;0.93;0.93;;;14.50;99.90;;;;;;5183664;28;20252;-77
2022/05/09 04:29:10;;;;;;;1.55;1.55;;;14.50;99.90;;;;;;5183264;28;20034;-79
2022/05/09 04:31:44;;;;;;;1.20;1.20;;;14.50;99.90;;;;;;5166749;28;20030;-78
2022/05/09 04:34:17;;;;;;;1.20;1.20;;;14.60;99.90;;;;;;5182382;28;20036;-79
2022/05/09 04:36:48;;;;;;;0.85;0.85;;;14.60;99.90;;;;;;5144261;28;20045;-78
2022/05/09 04:39:21;;;;;;;1.15;1.15;;;14.60;99.90;;;;;;5145091;28;20049;-78
2022/05/09 04:41:52;;;;;;;1.42;1.42;;;14.60;99.90;;;;;;5128581;28;20376;-77
2022/05/09 04:44:23;;;;;;;1.42;1.42;;;14.60;99.90;;;;;;5149537;28;20129;-78
2022/05/09 04:46:55;;;;;;;0.90;0.90;;;14.70;99.90;;;;;;5182384;28;20028;-77
2022/05/09 04:49:26;;;;;;;1.85;1.75;;;14.70;99.90;;;;;;5178816;28;20232;-78
2022/05/09 04:52:00;;;;;;;1.10;1.10;;;14.70;99.90;;;;;;5184522;28;20049;-78
2022/05/09 04:54:32;;;;;;;1.17;1.17;;;14.70;99.90;;;;;;5179597;28;20034;-77
2022/05/09 04:57:07;;;;;;;1.42;1.33;;;14.70;99.90;;;;;;5180094;28;20045;-80
2022/05/09 04:59:42;;;;;;;1.17;1.17;;;14.60;99.90;;;;;;5174473;28;20229;-75
2022/05/09 05:02:19;;;;;;;1.20;1.20;;;14.60;99.90;;;;;;5183108;28;20345;-78
2022/05/09 05:04:52;;;;;;;1.58;1.52;;;14.70;99.90;;;;;;5171670;28;20046;-79
2022/05/09 05:07:24;;;;;;;1.88;1.77;;;14.70;99.90;;;;;;5175033;28;20305;-77
2022/05/09 05:09:58;;;;;;;1.05;1.00;;;14.60;99.90;;;;;;5179954;28;20323;-77
2022/05/09 05:12:29;;;;;;;1.15;1.15;;;14.70;99.90;;;;;;5164605;28;20349;-77
2022/05/09 05:15:05;;;;;;;1.08;1.08;;;14.70;99.90;;;;;;5161684;28;20029;-79
2022/05/09 05:17:38;;;;;;;1.23;1.17;;;14.70;99.90;;;;;;5145760;28;20025;-78
2022/05/09 05:20:16;;;;;;;0.90;0.90;;;14.80;99.90;;;;;;5178323;28;20030;-79
2022/05/09 05:22:50;;;;;;;1.85;1.75;;;14.90;99.90;;;;;;5186571;28;20032;-78
2022/05/09 05:25:31;;;;;;;1.02;1.02;;;14.90;99.90;;;;;;5185466;28;20042;-78
2022/05/09 05:28:05;;;;;;;2.22;2.13;;;14.90;99.90;;;;;;5183374;28;20045;-77
2022/05/09 05:30:37;;;;;;;2.40;2.30;;;14.90;99.90;;;;;;5174098;28;20022;-78
2022/05/09 05:33:08;;;;;;;2.17;1.67;;;15.00;99.90;;;;;;5162117;28;20427;-79
2022/05/09 05:35:40;;;;;;;2.33;2.22;;;15.00;99.90;;;;;;5175490;28;20211;-77
2022/05/09 05:38:13;;;;;;;2.13;2.03;;;15.00;99.90;;;;;;5182817;28;20216;-78
2022/05/09 05:40:47;;;;;;;1.70;1.60;;;15.00;99.90;;;;;;5152950;28;20339;-76
2022/05/09 05:43:18;;;;;;;1.55;1.45;;;15.00;99.90;;;;;;5143479;28;20259;-79
2022/05/09 05:45:55;;;;;;;2.00;1.90;;;15.10;99.90;;;;;;5156049;28;20244;-79
2022/05/09 05:48:27;;;;;;;2.92;2.65;;;15.20;99.90;;;;;;5160932;28;20053;-78
2022/05/09 05:51:00;;;;;;;1.30;1.20;;;15.20;99.90;;;;;;5162487;28;20026;-79
2022/05/09 05:53:34;;;;;;;1.38;1.30;;;15.20;99.90;;;;;;5175215;28;20034;-77
2022/05/09 05:56:06;;;;;;;1.42;1.42;;;15.30;99.90;;;;;;5180789;28;20315;-78
2022/05/09 05:58:39;;;;;;;0.93;0.93;;;15.40;99.90;;;;;;5193497;28;20018;-77
2022/05/09 06:01:11;;;;;;;0.95;0.95;;;15.40;99.90;;;;;;5155462;28;20319;-79
2022/05/09 06:03:45;;;;;;;0.85;0.85;;;15.40;99.90;;;;;;5158762;28;20030;-79
2022/05/09 06:06:18;;;;;;;1.08;1.08;;;15.50;99.90;;;;;;5132887;28;20319;-76
2022/05/09 06:08:56;;;;;;;1.30;1.30;;;15.70;99.90;;;;;;5160555;28;20042;-78
2022/05/09 06:11:27;;;;;;;1.63;1.58;;;15.70;99.90;;;;;;5159762;28;20040;-78
2022/05/09 06:14:00;;;;;;;1.70;1.60;;;15.90;99.90;;;;;;5149956;28;20029;-78
2022/05/09 06:16:34;;;;;;;1.63;1.52;;;16.00;99.90;;;;;;5146928;28;20060;-78
2022/05/09 06:19:05;;;;;;;;;;;16.00;99.90;;;;;;5161234;28;20030;-78
2022/05/09 06:21:37;;;;;;;1.10;1.10;;;16.20;99.90;;;;;;5176607;28;20369;-79
2022/05/09 06:24:09;;;;;;;0.90;0.90;;;16.30;99.90;;;;;;5179852;28;20347;-76
2022/05/09 06:26:45;;;;;;;2.00;1.90;;;16.30;99.90;;;;;;5181416;28;20024;-78
2022/05/09 06:29:17;;;;;;;3.60;2.22;;;16.20;99.90;;;;;;5180375;28;20032;-78
2022/05/09 06:31:50;;;;;;;0.90;0.90;;;16.30;99.90;;;;;;5160413;28;20362;-78
2022/05/09 06:34:21;;;;;;;1.30;1.30;;;16.40;99.90;;;;;;5160367;28;20102;-79
2022/05/09 06:36:55;;;;;;;1.00;0.95;;;16.20;99.90;;;;;;5172371;28;20042;-78
2022/05/09 06:39:27;;;;;;;1.38;1.38;;;16.20;99.90;;;;;;5180702;28;20037;-78
2022/05/09 06:41:59;;;;;;;1.30;1.30;;;16.20;99.90;;;;;;5159008;28;20030;-78
2022/05/09 06:44:35;;;;;;;1.30;1.30;;;16.30;99.90;;;;;;5175536;28;20044;-78
2022/05/09 06:47:10;;;;;;;1.08;1.08;;;16.20;99.90;;;;;;5177749;28;20297;-78
2022/05/09 06:49:44;;;;;;;1.13;1.13;;;16.30;99.90;;;;;;5180573;28;20028;-78
2022/05/09 06:52:16;;;;;;;2.72;2.53;;;16.50;99.90;;;;;;5178859;28;20047;-78
2022/05/09 06:54:48;;;;;;;1.77;1.67;;;16.50;99.90;;;;;;5160183;28;20200;-78
2022/05/09 06:57:19;;;;;;;1.92;1.83;;;16.70;99.90;;;;;;5142255;28;20216;-79
2022/05/09 06:59:51;;;;;;;0.98;0.98;;;16.80;99.90;;;;;;5153046;28;20057;-79
2022/05/09 07:02:25;;;;;;;1.95;1.85;;;16.70;99.90;;;;;;5178976;28;20038;-78
2022/05/09 07:04:57;;;;;;;1.77;1.65;;;16.80;99.90;;;;;;5145308;28;20098;-79
2022/05/09 07:07:28;;;;;;;1.50;1.40;;;16.80;99.90;;;;;;5154840;28;20474;-79
2022/05/09 07:10:01;;;;;;;1.50;1.40;;;16.90;99.90;;;;;;5140951;28;20056;-78
2022/05/09 07:12:47;;;;;;;1.02;1.02;;;16.80;99.90;;;;;;5140679;28;20022;-79
2022/05/09 07:15:26;;;;;;;1.63;1.52;;;16.70;99.90;;;;;;5159589;28;20033;-79
2022/05/09 07:18:01;;;;;;;1.42;1.35;;;16.90;99.90;;;;;;5159929;28;20022;-79
2022/05/09 07:20:34;;;;;;;0.80;0.80;;;17.00;99.90;;;;;;5142325;28;20344;-78
2022/05/09 07:23:14;;;;;;;0.75;0.75;;;17.10;99.90;;;;;;5146315;28;20281;-79
2022/05/09 07:25:46;;;;;;;1.05;1.05;;;17.30;99.90;;;;;;5158546;28;20291;-78
2022/05/09 07:28:23;;;;;;;1.88;1.77;;;17.60;99.90;;;;;;5141601;28;20044;-77
2022/05/09 07:30:56;;;;;;;1.50;1.50;;;17.90;99.90;;;;;;5131796;28;20031;-76
2022/05/09 07:33:28;;;;;;;0.90;0.90;;;18.10;99.90;;;;;;5138941;28;20035;-78
2022/05/09 07:36:00;;;;;;;1.35;1.02;;;18.20;99.90;;;;;;5120429;28;20041;-79
2022/05/09 07:38:33;;;;;;;0.90;0.90;;;18.50;99.90;;;;;;5130612;28;20034;-78
2022/05/09 07:41:10;;;;;;;0.57;0.57;;;18.80;99.90;;;;;;5143209;28;20034;-79
2022/05/09 07:43:43;;;;;;;1.02;1.02;;;18.80;99.90;;;;;;5139486;28;20039;-80
2022/05/09 07:46:16;;;;;;;1.20;1.20;;;19.40;99.90;;;;;;5138394;28;20336;-79
2022/05/09 07:48:47;;;;;;;1.43;1.43;;;19.30;99.90;;;;;;5139879;28;20035;-78
2022/05/09 07:51:24;;;;;;;0.57;0.57;;;19.10;99.90;;;;;;5144734;28;20034;-78
2022/05/09 07:53:56;;;;;;;0.77;0.77;;;19.60;99.90;;;;;;5153757;28;20213;-78
2022/05/09 07:56:27;;;;;;;0.70;0.70;;;19.70;99.90;;;;;;5127585;28;20193;-80
2022/05/09 07:58:59;;;;;;;0.93;0.93;;;19.80;99.90;;;;;;5134412;28;20236;-79
2022/05/09 08:01:30;;;;;;;17.27;1.50;;;20.00;99.90;;;;;;5153029;28;20030;-76
2022/05/09 08:04:05;;;;;;;1.70;1.60;;;19.30;99.90;;;;;;5159280;28;20098;-77
2022/05/09 08:06:38;;;;;;;1.38;1.30;;;19.70;99.90;;;;;;5138807;28;20049;-79
2022/05/09 08:09:12;;;;;;;0.95;0.95;;;19.70;99.90;;;;;;5164680;28;20033;-78
2022/05/09 08:11:44;;;;;;;1.58;1.48;;;20.40;99.90;;;;;;5183280;28;20042;-77
2022/05/09 08:14:16;;;;;;;1.65;1.55;;;19.90;99.90;;;;;;5174640;28;20015;-77
2022/05/09 08:16:48;;;;;;;1.10;1.10;;;19.60;99.90;;;;;;5176468;28;20032;-77
2022/05/09 08:19:23;;;;;;;1.30;1.30;;;19.60;99.90;;;;;;5174899;28;20010;-77
2022/05/09 08:21:57;;;;;;;1.35;1.30;;;19.40;99.90;;;;;;5172435;28;20042;-77
2022/05/09 08:24:33;;;;;;;1.20;1.20;;;19.30;99.90;;;;;;5192519;28;20215;-78
2022/05/09 08:27:05;;;;;;;0.90;0.90;;;19.50;99.90;;;;;;5179599;28;20042;-76
2022/05/09 08:29:39;;;;;;;0.57;0.57;;;20.20;99.90;;;;;;5186962;28;20029;-78
2022/05/09 08:32:11;;;;;;;0.65;0.65;;;20.80;99.90;;;;;;5164280;28;20064;-77
2022/05/09 08:34:42;;;;;;;0.95;0.95;;;20.80;99.90;;;;;;5182489;28;20129;-78
2022/05/09 08:37:14;;;;;;;0.70;0.70;;;21.40;99.90;;;;;;5169945;28;20028;-78
2022/05/09 08:39:46;;;;;;;0.70;0.70;;;21.10;99.90;;;;;;5177606;28;20052;-76
2022/05/09 08:42:38;;;;;;;1.60;1.50;;;21.40;99.90;;;;;;5182153;28;20371;-79
2022/05/09 08:45:19;;;;;;;1.02;1.02;;;21.90;99.90;;;;;;5171103;28;20311;-78
2022/05/09 08:48:38;;;;;;;1.67;1.58;;;21.50;99.90;;;;;;5176788;28;20029;-78
2022/05/09 08:51:31;;;;;;;0.98;0.98;;;20.80;99.90;;;;;;5104095;29;20415;-76
2022/05/09 08:54:08;;;;;;;0.98;0.98;;;21.80;99.90;;;;;;5115235;29;20047;-76
2022/05/09 08:56:47;;;;;;;1.35;1.33;;;22.20;99.90;;;;;;5098652;29;20418;-79
2022/05/09 08:59:29;;;;;;;1.10;1.00;;;22.40;99.90;;;;;;5102091;29;20040;-76
2022/05/09 09:02:18;;;;;;;0.93;0.93;;;22.50;99.90;;;;;;5109652;29;20091;-77
2022/05/09 09:04:58;;;;;;;0.52;0.52;;;22.50;99.90;;;;;;5109681;28;20324;-77
2022/05/09 09:07:50;;;;;;;0.65;0.65;;;22.50;99.90;;;;;;5119911;28;20370;-80
2022/05/09 09:10:40;;;;;;;0.52;0.52;;;23.20;99.90;;;;;;5117270;29;20031;-77
2022/05/09 09:13:36;;;;;;;0.75;0.75;;;22.20;99.90;;;;;;5095051;29;20028;-79
2022/05/09 09:16:16;;;;;;;0.60;0.60;;;22.80;99.90;;;;;;5099705;29;20031;-78
2022/05/09 09:19:11;;;;;;;1.42;1.33;;;22.70;99.90;;;;;;5099194;29;20332;-77
2022/05/09 09:22:18;;;;;;;0.50;0.50;;;21.90;99.90;;;;;;5084259;29;20044;-76
2022/05/09 09:24:52;;;;;;;0.60;0.60;;;22.50;99.90;;;;;;5128732;29;20186;-77
2022/05/09 09:27:43;;;;;;;1.08;1.08;;;22.80;99.90;;;;;;5177289;28;20038;-77
2022/05/09 09:30:24;;;;;;;1.67;1.52;;;22.60;99.90;;;;;;5177976;28;20038;-78
2022/05/09 09:33:02;;;;;;;1.08;1.08;;;22.40;99.90;;;;;;5159446;28;20307;-77
2022/05/09 09:36:07;;;;;;;1.48;1.38;;;22.30;99.90;;;;;;5172426;28;20232;-76
2022/05/09 09:39:10;;;;;;;0.73;0.73;;;22.50;99.90;;;;;;5172884;28;20021;-77
2022/05/09 09:41:44;;;;;;;0.70;0.70;;;23.50;99.90;;;;;;5158124;28;20026;-78
2022/05/09 09:44:25;;;;;;;0.98;0.98;;;23.80;99.90;;;;;;5159160;28;20038;-77
2022/05/09 09:47:04;;;;;;;0.47;0.47;;;24.50;99.90;;;;;;5165352;28;20026;-78
2022/05/09 09:49:43;;;;;;;0.70;0.70;;;24.70;99.90;;;;;;5179948;28;20303;-78
2022/05/09 09:52:28;;;;;;;2.15;1.70;;;23.60;99.90;;;;;;5160405;28;20465;-78
2022/05/09 09:55:07;;;;;;;;;;;23.60;99.90;;;;;;5165371;28;20037;-78
2022/05/09 09:57:39;;;;;;;0.77;0.77;;;23.70;99.90;;;;;;5166828;28;19912;-80
2022/05/09 10:00:19;;;;;;;1.25;1.15;;;24.70;99.90;;;;;;5185361;28;20041;-77
2022/05/09 10:02:54;;;;;;;1.08;1.08;;;25.10;99.90;;;;;;5184692;28;20037;-77
2022/05/09 10:05:41;;;;;;;0.82;0.82;;;25.20;99.90;;;;;;5167673;28;20062;-77
2022/05/09 10:08:24;;;;;;;1.42;1.38;;;23.90;99.90;;;;;;5150492;28;20036;-80
2022/05/09 10:11:06;;;;;;;0.57;0.57;;;23.10;99.90;;;;;;5174125;28;20038;-78
2022/05/09 10:13:42;;;;;;;1.50;1.40;;;23.40;99.90;;;;;;5186064;28;20442;-79
2022/05/09 10:16:45;;;;;;;1.05;0.98;;;23.30;99.90;;;;;;5185654;28;20017;-80
2022/05/09 10:19:31;;;;;;;0.88;0.88;;;23.10;99.90;;;;;;5184887;28;20041;-80
2022/05/09 10:25:20;;;;;;;0.50;0.50;;;24.70;99.90;;;;;;5165157;28;20018;-79
2022/05/09 10:28:14;;;;;;;0.80;0.55;;;23.40;99.90;;;;;;5165145;28;20032;-79
2022/05/09 10:30:52;;;;;;;0.83;0.83;;;23.50;99.90;;;;;;5173352;28;20038;-81
2022/05/09 10:33:38;;;;;;;0.55;0.55;;;24.30;99.90;;;;;;5166336;28;20275;-79
2022/05/09 10:36:21;;;;;;;0.40;0.40;;;25.90;99.90;;;;;;5184752;28;20061;-79
2022/05/09 10:39:11;;;;;;;0.57;0.57;;;28.40;99.90;;;;;;5168069;28;20045;-79
2022/05/09 10:41:44;;;;;;;0.63;0.63;;;29.00;99.90;;;;;;5166798;28;20022;-79
2022/05/09 10:44:45;;;;;;;0.90;0.90;;;28.00;99.90;;;;;;5167835;28;20043;-78
2022/05/09 10:47:27;;;;;;;1.63;1.52;;;28.00;99.90;;;;;;5185984;28;20030;-78
2022/05/09 10:50:31;;;;;;;0.75;0.75;;;28.70;99.90;;;;;;5187355;28;20032;-77
2022/05/09 10:53:38;;;;;;;0.65;0.65;;;27.80;99.90;;;;;;5180553;28;20048;-77
2022/05/09 10:56:39;;;;;;;1.40;1.30;;;26.50;99.90;;;;;;5184419;28;20481;-78
2022/05/09 10:59:18;;;;;;;0.65;0.65;;;27.40;99.90;;;;;;5165171;28;20051;-79
2022/05/09 11:02:01;;;;;;;0.75;0.75;;;28.60;99.90;;;;;;5171630;28;20030;-82
2022/05/09 11:04:35;;;;;;;1.67;0.95;;;30.70;99.90;;;;;;5161268;28;20253;-79
2022/05/09 11:07:43;;;;;;;0.80;0.80;;;31.20;99.90;;;;;;5181027;28;20029;-80
2022/05/09 11:10:23;;;;;;;1.85;1.75;;;28.50;99.90;;;;;;5170158;28;20030;-78
2022/05/09 11:13:19;;;;;;;0.43;0.43;;;26.00;99.90;;;;;;5169383;28;20032;-79
2022/05/09 11:15:53;;;;;;;1.25;1.15;;;27.90;99.90;;;;;;5188319;28;20040;-81
2022/05/09 11:18:43;;;;;;;0.95;0.95;;;29.70;99.90;;;;;;5157777;28;20351;-78
2022/05/09 11:21:39;;;;;;;0.57;0.57;;;30.00;99.90;;;;;;5187484;28;20018;-76
2022/05/09 11:24:18;;;;;;;0.55;0.55;;;27.50;99.90;;;;;;5171405;28;20069;-78
2022/05/09 11:26:49;;;;;;;0.88;0.88;;;25.80;99.90;;;;;;5187442;28;20018;-77
2022/05/09 11:30:11;;;;;;;0.60;0.60;;;24.50;99.90;;;;;;5187633;28;20034;-80
2022/05/09 11:32:46;;;;;;;0.70;0.70;;;25.50;99.90;;;;;;5158751;28;20037;-78
2022/05/09 11:35:23;;;;;;;0.80;0.80;;;27.70;99.90;;;;;;5132938;28;20031;-79
2022/05/09 11:38:00;;;;;;;0.30;0.30;;;28.60;99.90;;;;;;5166109;28;20041;-79
2022/05/09 11:40:50;;;;;;;0.93;0.93;;;29.40;99.90;;;;;;5167786;28;20022;-77
2022/05/09 11:43:59;;;;;;;0.73;0.73;;;28.70;99.90;;;;;;5170078;28;20048;-77
2022/05/09 11:46:48;;;;;;;0.82;0.82;;;28.00;99.90;;;;;;5172932;28;20028;-80
2022/05/09 11:49:32;;;;;;;0.70;0.70;;;25.50;99.90;;;;;;5190028;28;20055;-78
2022/05/09 11:52:14;;;;;;;0.30;0.30;;;26.30;99.90;;;;;;5189919;28;20036;-79
2022/05/09 11:54:48;;;;;;;0.43;0.43;;;28.70;99.90;;;;;;5189001;28;20393;-77
2022/05/09 11:57:33;;;;;;;;;;;30.80;99.90;;;;;;5188521;28;20044;-77
2022/05/09 12:00:11;;;;;;;0.63;0.63;;;30.60;99.90;;;;;;5186150;28;19915;-75
2022/05/09 12:02:49;;;;;;;1.48;1.35;;;30.60;99.90;;;;;;5169354;28;20217;-77
2022/05/09 12:05:27;;;;;;;0.32;0.32;;;30.90;99.90;;;;;;5142148;28;20144;-80
2022/05/09 12:08:05;;;;;;;0.98;0.90;;;30.90;99.90;;;;;;5168167;28;20027;-78
2022/05/09 12:10:39;;;;;;;0.68;0.68;;;31.30;99.90;;;;;;5167807;28;20035;-77
2022/05/09 12:13:15;;;;;;;0.73;0.73;;;32.70;99.90;;;;;;5178277;28;20014;-76
2022/05/09 12:15:51;;;;;;;0.82;0.82;;;32.00;99.90;;;;;;5186787;28;20040;-81
2022/05/09 12:18:28;;;;;;;0.70;0.70;;;31.00;99.90;;;;;;5175745;28;20026;-79
2022/05/09 12:21:04;;;;;;;0.82;0.82;;;28.70;99.90;;;;;;5167975;28;20334;-79
2022/05/09 12:23:50;;;;;;;1.10;1.10;;;28.40;99.90;;;;;;5179119;28;20028;-79
2022/05/09 12:26:34;;;;;;;0.50;0.50;;;28.10;99.90;;;;;;5189160;28;20030;-80
2022/05/09 12:29:12;;;;;;;;;;;28.40;99.90;;;;;;5178822;28;20025;-78
2022/05/09 12:32:16;;;;;;;0.60;0.60;;;29.70;99.90;;;;;;5189303;28;19902;-75
2022/05/09 12:34:51;;;;;;;0.57;0.57;;;29.90;99.90;;;;;;5101382;29;20031;-79
2022/05/09 12:37:24;;;;;;;0.77;0.77;;;31.20;99.90;;;;;;5103067;29;20036;-78
2022/05/09 12:39:55;;;;;;;1.05;1.05;;;31.90;99.90;;;;;;5095828;29;20028;-80
2022/05/09 12:42:55;;;;;;;0.70;0.70;;;32.40;99.90;;;;;;5098796;29;20036;-79
2022/05/09 12:45:33;;;;;;;0.60;0.60;;;34.20;99.90;;;;;;5087682;29;20053;-78
2022/05/09 12:48:04;;;;;;;1.20;1.20;;;33.00;99.90;;;;;;5104329;29;20481;-77
2022/05/09 12:50:39;;;;;;;0.93;0.93;;;32.40;99.90;;;;;;5095467;29;20042;-79
2022/05/09 12:53:17;;;;;;;0.80;0.80;;;28.70;99.90;;;;;;5060785;29;20068;-80
2022/05/09 12:55:55;;;;;;;0.75;0.75;;;26.40;99.90;;;;;;5086855;29;20027;-78
2022/05/09 12:58:34;;;;;;;0.90;0.90;;;25.10;99.90;;;;;;5097484;29;20540;-77
2022/05/09 13:01:14;;;;;;;0.60;0.60;;;24.40;99.90;;;;;;5104652;29;20035;-79
2022/05/09 13:03:45;;;;;;;0.85;0.85;;;24.60;99.90;;;;;;5099330;29;20032;-77
2022/05/09 13:06:25;;;;;;;0.32;0.32;;;26.00;99.90;;;;;;5062919;29;20039;-78
2022/05/09 13:08:57;;;;;;;1.15;1.05;;;26.30;99.90;;;;;;5104307;29;20035;-76
2022/05/09 13:11:36;;;;;;;2.25;1.50;;;25.20;99.90;;;;;;5125581;28;20030;-78
2022/05/09 13:14:24;;;;;;;0.40;0.40;;;25.30;99.90;;;;;;5149510;28;20060;-76
2022/05/09 13:17:07;;;;;;;0.73;0.73;;;26.30;99.90;;;;;;5166989;28;20023;-76
2022/05/09 13:19:44;;;;;;;0.60;0.60;;;25.40;99.90;;;;;;5165598;28;20045;-76
2022/05/09 13:22:48;;;;;;;1.55;0.70;;;25.40;99.90;;;;;;5149447;28;20040;-78
2022/05/09 13:25:40;;;;;;;0.50;0.50;;;24.70;99.90;;;;;;5176266;28;20040;-77
2022/05/09 13:28:20;;;;;;;0.60;0.60;;;24.10;99.90;;;;;;5171284;28;20026;-78
2022/05/09 13:30:55;;;;;;;0.63;0.63;;;25.00;99.90;;;;;;5181472;28;20381;-79
2022/05/09 13:33:32;;;;;;;0.70;0.70;;;27.40;99.90;;;;;;5186945;28;20032;-77
2022/05/09 13:36:10;;;;;;;0.73;0.65;;;30.20;99.90;;;;;;5185826;28;20303;-80
2022/05/09 13:38:47;;;;;;;1.75;1.55;;;32.80;99.90;;;;;;5183207;28;20033;-80
2022/05/09 13:41:28;;;;;;;0.80;0.80;;;33.00;99.90;;;;;;5167947;28;20519;-77
2022/05/09 13:44:02;;;;;;;0.68;0.68;;;31.60;99.90;;;;;;5169034;28;20040;-77
2022/05/09 13:46:39;;;;;;;0.82;0.82;;;29.10;99.90;;;;;;5169248;28;20063;-76
2022/05/09 13:49:18;;;;;;;0.70;0.70;;;27.80;99.90;;;;;;5185537;28;20442;-80
2022/05/09 13:52:08;;;;;;;0.40;0.40;;;29.20;99.90;;;;;;5167305;28;20025;-77
2022/05/09 13:54:54;;;;;;;0.95;0.88;;;31.30;99.90;;;;;;5177472;28;20262;-79